Bavaria

Go HERE for most recent data if this page is not up to date.

Jump to table bottom
Date Time Temp F RH % AVG Wind Max Wind Wind Dir 24 Snow Depth
03/05 01:00 -0.1 79 3 8 SW - 242 2.6 53.2
03/05 00:00 0.2 80 3 6 SW - 228 2.5 53.0
03/04 23:00 1.6 81 3 10 W - 276 2.6 53.0
03/04 22:00 2.9 82 4 9 NW - 303 2.0 52.9
03/04 21:00 2.8 81 4 8 W - 270 1.6 52.8
03/04 20:00 3.1 81 2 6 W - 267 1.4 52.7
03/04 19:00 4.5 80 3 9 SW - 244 0.7 52.3
03/04 18:00 4.2 81 3 11 N - 347 0.3 52.0
03/04 17:00 6.4 78 2 5 SW - 215 -0.0 51.0
03/04 16:00 7.2 78 3 7 W - 288 -0.1 51.2
03/04 15:00 8.6 79 2 4 W - 277 0.1 50.5
03/04 14:00 11.7 66 2 5 SW - 239 -0.2 49.8
03/04 13:00 15.0 62 2 5 S - 194 -0.3 49.8
03/04 12:00 15.1 61 3 9 S - 161 -0.3 49.7
03/04 11:00 15.6 65 2 6 S - 188 -0.3 50.5
03/04 10:00 13.6 65 2 7 S - 175 -0.0 51.3
03/04 09:00 7.9 73 2 7 W - 277 0.2 51.7
03/04 08:00 2.9 76 0 3 S - 194 0.3 51.6
03/04 07:00 0.4 76 2 8 NW - 295 0.2 51.1
03/04 06:00 1.4 78 2 5 W - 271 0.1 50.9
03/04 05:00 2.1 79 2 5 W - 269 0.2 51.0
03/04 04:00 2.0 79 2 8 NW - 298 0.2 51.1
03/04 03:00 2.7 80 2 6 W - 277 0.2 52.0
03/04 02:00 2.3 80 2 7 W - 277 0.3 51.7
03/04 01:00 1.5 80 1 5 SW - 221 0.2 51.9
03/04 00:00 1.1 79 1 4 NW - 299 0.1 51.9
.